sensor_id;sensor_type;location;lat;lon;timestamp;temperature;humidity
4964;DHT22;2497;47.410;9.740;2023-02-22T00:01:41;4.00;99.90
4964;DHT22;2497;47.410;9.740;2023-02-22T00:04:17;4.20;99.90
4964;DHT22;2497;47.410;9.740;2023-02-22T00:06:46;4.20;99.90
4964;DHT22;2497;47.410;9.740;2023-02-22T00:09:14;4.00;99.90
4964;DHT22;2497;47.410;9.740;2023-02-22T00:11:46;4.00;99.90
4964;DHT22;2497;47.410;9.740;2023-02-22T00:14:13;4.10;99.90
4964;DHT22;2497;47.410;9.740;2023-02-22T00:16:40;4.10;99.90
4964;DHT22;2497;47.410;9.740;2023-02-22T00:19:07;4.10;99.90
4964;DHT22;2497;47.410;9.740;2023-02-22T00:21:36;4.00;99.90
4964;DHT22;2497;47.410;9.740;2023-02-22T00:24:04;4.10;99.90
4964;DHT22;2497;47.410;9.740;2023-02-22T00:26:48;4.00;99.90
4964;DHT22;2497;47.410;9.740;2023-02-22T00:29:15;4.00;99.90
4964;DHT22;2497;47.410;9.740;2023-02-22T00:31:42;3.90;99.90
4964;DHT22;2497;47.410;9.740;2023-02-22T00:34:10;3.80;99.90
4964;DHT22;2497;47.410;9.740;2023-02-22T00:36:42;3.70;99.90
4964;DHT22;2497;47.410;9.740;2023-02-22T00:39:10;3.70;99.90
4964;DHT22;2497;47.410;9.740;2023-02-22T00:41:37;3.70;99.90
4964;DHT22;2497;47.410;9.740;2023-02-22T00:44:04;3.60;99.90
4964;DHT22;2497;47.410;9.740;2023-02-22T00:46:31;3.50;99.90
4964;DHT22;2497;47.410;9.740;2023-02-22T00:48:59;3.50;99.90
4964;DHT22;2497;47.410;9.740;2023-02-22T00:51:26;3.50;99.90
4964;DHT22;2497;47.410;9.740;2023-02-22T00:53:54;3.70;99.90
4964;DHT22;2497;47.410;9.740;2023-02-22T00:56:22;3.70;99.90
4964;DHT22;2497;47.410;9.740;2023-02-22T00:58:49;3.80;99.90
4964;DHT22;2497;47.410;9.740;2023-02-22T01:01:16;3.70;99.90
4964;DHT22;2497;47.410;9.740;2023-02-22T01:03:43;3.70;99.90
4964;DHT22;2497;47.410;9.740;2023-02-22T01:06:10;3.60;99.90
4964;DHT22;2497;47.410;9.740;2023-02-22T01:08:38;3.70;99.90
4964;DHT22;2497;47.410;9.740;2023-02-22T01:11:11;3.60;99.90
4964;DHT22;2497;47.410;9.740;2023-02-22T01:13:38;3.50;99.90
4964;DHT22;2497;47.410;9.740;2023-02-22T01:16:06;3.50;99.90
4964;DHT22;2497;47.410;9.740;2023-02-22T01:18:33;3.50;99.90
4964;DHT22;2497;47.410;9.740;2023-02-22T01:21:02;3.50;99.90
4964;DHT22;2497;47.410;9.740;2023-02-22T01:23:29;3.60;99.90
4964;DHT22;2497;47.410;9.740;2023-02-22T01:25:56;3.50;99.90
4964;DHT22;2497;47.410;9.740;2023-02-22T01:28:25;3.50;99.90
4964;DHT22;2497;47.410;9.740;2023-02-22T01:30:53;3.40;99.90
4964;DHT22;2497;47.410;9.740;2023-02-22T01:33:20;3.40;99.90
4964;DHT22;2497;47.410;9.740;2023-02-22T01:35:48;3.30;99.90
4964;DHT22;2497;47.410;9.740;2023-02-22T01:38:16;3.30;99.90
4964;DHT22;2497;47.410;9.740;2023-02-22T01:40:46;3.30;99.90
4964;DHT22;2497;47.410;9.740;2023-02-22T01:43:16;3.20;99.90
4964;DHT22;2497;47.410;9.740;2023-02-22T01:45:53;3.30;99.90
4964;DHT22;2497;47.410;9.740;2023-02-22T01:48:27;3.30;99.90
4964;DHT22;2497;47.410;9.740;2023-02-22T01:50:58;3.20;99.90
4964;DHT22;2497;47.410;9.740;2023-02-22T01:53:28;3.20;99.90
4964;DHT22;2497;47.410;9.740;2023-02-22T01:55:57;3.20;99.90
4964;DHT22;2497;47.410;9.740;2023-02-22T01:58:27;3.10;99.90
4964;DHT22;2497;47.410;9.740;2023-02-22T02:00:57;3.10;99.90
4964;DHT22;2497;47.410;9.740;2023-02-22T02:03:28;3.10;99.90
4964;DHT22;2497;47.410;9.740;2023-02-22T02:06:00;3.00;99.90
4964;DHT22;2497;47.410;9.740;2023-02-22T02:08:34;3.00;99.90
4964;DHT22;2497;47.410;9.740;2023-02-22T02:11:04;3.00;99.90
4964;DHT22;2497;47.410;9.740;2023-02-22T02:13:32;3.10;99.90
4964;DHT22;2497;47.410;9.740;2023-02-22T02:16:01;3.10;99.90
4964;DHT22;2497;47.410;9.740;2023-02-22T02:18:28;3.00;99.90
4964;DHT22;2497;47.410;9.740;2023-02-22T02:24:46;3.00;99.90
4964;DHT22;2497;47.410;9.740;2023-02-22T02:27:18;3.00;99.90
4964;DHT22;2497;47.410;9.740;2023-02-22T02:32:56;2.80;99.90
4964;DHT22;2497;47.410;9.740;2023-02-22T02:35:38;2.70;99.90
4964;DHT22;2497;47.410;9.740;2023-02-22T02:38:13;2.70;99.90
4964;DHT22;2497;47.410;9.740;2023-02-22T02:40:46;2.80;99.90
4964;DHT22;2497;47.410;9.740;2023-02-22T02:43:20;2.70;99.90
4964;DHT22;2497;47.410;9.740;2023-02-22T02:45:54;2.70;99.90
4964;DHT22;2497;47.410;9.740;2023-02-22T02:48:27;2.70;99.90
4964;DHT22;2497;47.410;9.740;2023-02-22T02:50:57;2.80;99.90
4964;DHT22;2497;47.410;9.740;2023-02-22T02:53:28;2.80;99.90
4964;DHT22;2497;47.410;9.740;2023-02-22T02:55:57;2.60;99.90
4964;DHT22;2497;47.410;9.740;2023-02-22T02:58:25;2.50;99.90
4964;DHT22;2497;47.410;9.740;2023-02-22T03:00:54;2.50;99.90
4964;DHT22;2497;47.410;9.740;2023-02-22T03:06:57;2.40;99.90
4964;DHT22;2497;47.410;9.740;2023-02-22T03:09:39;2.30;99.90
4964;DHT22;2497;47.410;9.740;2023-02-22T03:12:16;2.20;99.90
4964;DHT22;2497;47.410;9.740;2023-02-22T03:14:53;2.20;99.90
4964;DHT22;2497;47.410;9.740;2023-02-22T03:17:30;2.20;99.90
4964;DHT22;2497;47.410;9.740;2023-02-22T03:20:05;2.20;99.90
4964;DHT22;2497;47.410;9.740;2023-02-22T03:22:39;2.10;99.90
4964;DHT22;2497;47.410;9.740;2023-02-22T03:25:11;2.20;99.90
4964;DHT22;2497;47.410;9.740;2023-02-22T03:27:44;2.30;99.90
4964;DHT22;2497;47.410;9.740;2023-02-22T03:30:16;2.30;99.90
4964;DHT22;2497;47.410;9.740;2023-02-22T03:32:47;2.40;99.90
4964;DHT22;2497;47.410;9.740;2023-02-22T03:35:19;2.40;99.90
4964;DHT22;2497;47.410;9.740;2023-02-22T03:37:51;2.40;99.90
4964;DHT22;2497;47.410;9.740;2023-02-22T03:40:25;2.30;99.90
4964;DHT22;2497;47.410;9.740;2023-02-22T03:42:56;2.30;99.90
4964;DHT22;2497;47.410;9.740;2023-02-22T03:45:26;2.20;99.90
4964;DHT22;2497;47.410;9.740;2023-02-22T03:48:00;2.20;99.90
4964;DHT22;2497;47.410;9.740;2023-02-22T03:50:33;2.20;99.90
4964;DHT22;2497;47.410;9.740;2023-02-22T03:53:02;2.20;99.90
4964;DHT22;2497;47.410;9.740;2023-02-22T03:55:29;2.10;99.90
4964;DHT22;2497;47.410;9.740;2023-02-22T03:57:58;2.00;99.90
4964;DHT22;2497;47.410;9.740;2023-02-22T04:00:29;2.10;99.90
4964;DHT22;2497;47.410;9.740;2023-02-22T04:02:57;2.00;99.90
4964;DHT22;2497;47.410;9.740;2023-02-22T04:05:24;2.20;99.90
4964;DHT22;2497;47.410;9.740;2023-02-22T04:07:54;2.30;99.90
4964;DHT22;2497;47.410;9.740;2023-02-22T04:10:21;2.30;99.90
4964;DHT22;2497;47.410;9.740;2023-02-22T04:12:49;2.10;99.90
4964;DHT22;2497;47.410;9.740;2023-02-22T04:15:18;2.10;99.90
4964;DHT22;2497;47.410;9.740;2023-02-22T04:17:45;2.10;99.90
4964;DHT22;2497;47.410;9.740;2023-02-22T04:20:13;2.00;99.90
4964;DHT22;2497;47.410;9.740;2023-02-22T04:22:44;1.90;99.90
4964;DHT22;2497;47.410;9.740;2023-02-22T04:25:14;1.90;99.90
4964;DHT22;2497;47.410;9.740;2023-02-22T04:27:41;1.80;99.90
4964;DHT22;2497;47.410;9.740;2023-02-22T04:30:09;1.80;99.90
4964;DHT22;2497;47.410;9.740;2023-02-22T04:32:36;1.80;99.90
4964;DHT22;2497;47.410;9.740;2023-02-22T04:35:04;1.90;99.90
4964;DHT22;2497;47.410;9.740;2023-02-22T04:37:32;1.80;99.90
4964;DHT22;2497;47.410;9.740;2023-02-22T04:39:59;1.90;99.90
4964;DHT22;2497;47.410;9.740;2023-02-22T04:42:28;1.90;99.90
4964;DHT22;2497;47.410;9.740;2023-02-22T04:44:55;1.90;99.90
4964;DHT22;2497;47.410;9.740;2023-02-22T04:47:22;1.90;99.90
4964;DHT22;2497;47.410;9.740;2023-02-22T04:49:49;1.90;99.90
4964;DHT22;2497;47.410;9.740;2023-02-22T04:52:17;1.80;99.90
4964;DHT22;2497;47.410;9.740;2023-02-22T04:54:44;1.80;99.90
4964;DHT22;2497;47.410;9.740;2023-02-22T04:57:11;1.80;99.90
4964;DHT22;2497;47.410;9.740;2023-02-22T04:59:39;1.70;99.90
4964;DHT22;2497;47.410;9.740;2023-02-22T05:02:07;1.80;99.90
4964;DHT22;2497;47.410;9.740;2023-02-22T05:04:36;1.80;99.90
4964;DHT22;2497;47.410;9.740;2023-02-22T05:07:04;1.80;99.90
4964;DHT22;2497;47.410;9.740;2023-02-22T05:09:32;1.80;99.90
4964;DHT22;2497;47.410;9.740;2023-02-22T05:11:59;1.90;99.90
4964;DHT22;2497;47.410;9.740;2023-02-22T05:14:26;1.80;99.90
4964;DHT22;2497;47.410;9.740;2023-02-22T05:16:56;1.80;99.90
4964;DHT22;2497;47.410;9.740;2023-02-22T05:19:23;1.70;99.90
4964;DHT22;2497;47.410;9.740;2023-02-22T05:21:51;1.60;99.90
4964;DHT22;2497;47.410;9.740;2023-02-22T05:24:18;1.70;99.90
4964;DHT22;2497;47.410;9.740;2023-02-22T05:26:45;1.70;99.90
4964;DHT22;2497;47.410;9.740;2023-02-22T05:29:13;1.70;99.90
4964;DHT22;2497;47.410;9.740;2023-02-22T05:31:40;1.70;99.90
4964;DHT22;2497;47.410;9.740;2023-02-22T05:34:09;1.70;99.90
4964;DHT22;2497;47.410;9.740;2023-02-22T05:36:36;1.70;99.90
4964;DHT22;2497;47.410;9.740;2023-02-22T05:39:03;1.80;99.90
4964;DHT22;2497;47.410;9.740;2023-02-22T05:41:31;1.80;99.90
4964;DHT22;2497;47.410;9.740;2023-02-22T05:43:58;1.80;99.90
4964;DHT22;2497;47.410;9.740;2023-02-22T05:46:25;1.90;99.90
4964;DHT22;2497;47.410;9.740;2023-02-22T05:48:52;1.90;99.90
4964;DHT22;2497;47.410;9.740;2023-02-22T05:51:21;2.10;99.90
4964;DHT22;2497;47.410;9.740;2023-02-22T05:53:48;2.10;99.90
4964;DHT22;2497;47.410;9.740;2023-02-22T05:56:20;2.10;99.90
4964;DHT22;2497;47.410;9.740;2023-02-22T05:58:48;2.10;99.90
4964;DHT22;2497;47.410;9.740;2023-02-22T06:01:15;2.10;99.90
4964;DHT22;2497;47.410;9.740;2023-02-22T06:03:50;2.10;99.90
4964;DHT22;2497;47.410;9.740;2023-02-22T06:06:18;2.20;99.90
4964;DHT22;2497;47.410;9.740;2023-02-22T06:08:47;2.20;99.90
4964;DHT22;2497;47.410;9.740;2023-02-22T06:11:14;2.30;99.90
4964;DHT22;2497;47.410;9.740;2023-02-22T06:13:41;2.30;99.90
4964;DHT22;2497;47.410;9.740;2023-02-22T06:16:08;2.40;99.90
4964;DHT22;2497;47.410;9.740;2023-02-22T06:18:36;2.50;99.90
4964;DHT22;2497;47.410;9.740;2023-02-22T06:21:03;2.50;99.90
4964;DHT22;2497;47.410;9.740;2023-02-22T06:23:33;2.50;99.90
4964;DHT22;2497;47.410;9.740;2023-02-22T06:26:02;2.50;99.90
4964;DHT22;2497;47.410;9.740;2023-02-22T06:28:29;2.40;99.90
4964;DHT22;2497;47.410;9.740;2023-02-22T06:30:56;2.40;99.90
4964;DHT22;2497;47.410;9.740;2023-02-22T06:33:24;2.50;99.90
4964;DHT22;2497;47.410;9.740;2023-02-22T06:35:51;2.50;99.90
4964;DHT22;2497;47.410;9.740;2023-02-22T06:38:21;2.60;99.90
4964;DHT22;2497;47.410;9.740;2023-02-22T06:40:49;2.60;99.90
4964;DHT22;2497;47.410;9.740;2023-02-22T06:43:18;2.70;99.90
4964;DHT22;2497;47.410;9.740;2023-02-22T06:45:45;2.70;99.90
4964;DHT22;2497;47.410;9.740;2023-02-22T06:48:13;3.00;99.90
4964;DHT22;2497;47.410;9.740;2023-02-22T06:50:40;3.00;99.90
4964;DHT22;2497;47.410;9.740;2023-02-22T06:53:07;2.90;99.90
4964;DHT22;2497;47.410;9.740;2023-02-22T06:55:34;2.90;99.90
4964;DHT22;2497;47.410;9.740;2023-02-22T06:58:03;2.90;99.90
4964;DHT22;2497;47.410;9.740;2023-02-22T07:00:32;2.90;99.90
4964;DHT22;2497;47.410;9.740;2023-02-22T07:02:59;3.00;99.90
4964;DHT22;2497;47.410;9.740;2023-02-22T07:05:27;3.10;99.90
4964;DHT22;2497;47.410;9.740;2023-02-22T07:08:00;3.10;99.90
4964;DHT22;2497;47.410;9.740;2023-02-22T07:10:29;3.20;99.90
4964;DHT22;2497;47.410;9.740;2023-02-22T07:12:57;3.30;99.90
4964;DHT22;2497;47.410;9.740;2023-02-22T07:15:26;3.40;99.90
4964;DHT22;2497;47.410;9.740;2023-02-22T07:17:55;3.50;99.90
4964;DHT22;2497;47.410;9.740;2023-02-22T07:20:22;3.60;99.90
4964;DHT22;2497;47.410;9.740;2023-02-22T07:22:50;3.80;99.90
4964;DHT22;2497;47.410;9.740;2023-02-22T07:25:18;3.90;99.90
4964;DHT22;2497;47.410;9.740;2023-02-22T07:27:45;3.90;99.90
4964;DHT22;2497;47.410;9.740;2023-02-22T07:30:16;4.00;99.90
4964;DHT22;2497;47.410;9.740;2023-02-22T07:32:44;4.10;99.90
4964;DHT22;2497;47.410;9.740;2023-02-22T07:35:15;4.40;99.90
4964;DHT22;2497;47.410;9.740;2023-02-22T07:37:42;4.60;99.90
4964;DHT22;2497;47.410;9.740;2023-02-22T07:40:10;4.60;99.90
4964;DHT22;2497;47.410;9.740;2023-02-22T07:42:55;4.70;99.90
4964;DHT22;2497;47.410;9.740;2023-02-22T07:45:24;4.80;99.90
4964;DHT22;2497;47.410;9.740;2023-02-22T07:47:52;4.90;99.90
4964;DHT22;2497;47.410;9.740;2023-02-22T07:50:22;5.10;99.90
4964;DHT22;2497;47.410;9.740;2023-02-22T07:52:51;5.20;99.90
4964;DHT22;2497;47.410;9.740;2023-02-22T07:55:21;5.20;99.90
4964;DHT22;2497;47.410;9.740;2023-02-22T07:57:50;5.20;99.90
4964;DHT22;2497;47.410;9.740;2023-02-22T08:00:22;5.10;99.90
4964;DHT22;2497;47.410;9.740;2023-02-22T08:02:50;5.20;99.90
4964;DHT22;2497;47.410;9.740;2023-02-22T08:05:18;5.20;99.90
4964;DHT22;2497;47.410;9.740;2023-02-22T08:07:47;5.40;99.90
4964;DHT22;2497;47.410;9.740;2023-02-22T08:10:16;5.60;99.90
4964;DHT22;2497;47.410;9.740;2023-02-22T08:12:43;5.70;99.90
4964;DHT22;2497;47.410;9.740;2023-02-22T08:15:16;5.60;99.90
4964;DHT22;2497;47.410;9.740;2023-02-22T08:17:44;5.70;99.90
4964;DHT22;2497;47.410;9.740;2023-02-22T08:20:11;6.00;99.90
4964;DHT22;2497;47.410;9.740;2023-02-22T08:22:42;6.00;99.90
4964;DHT22;2497;47.410;9.740;2023-02-22T08:25:11;6.10;99.90
4964;DHT22;2497;47.410;9.740;2023-02-22T08:27:43;6.20;99.90
4964;DHT22;2497;47.410;9.740;2023-02-22T08:30:13;6.30;99.90
4964;DHT22;2497;47.410;9.740;2023-02-22T08:32:41;6.40;99.90
4964;DHT22;2497;47.410;9.740;2023-02-22T08:35:11;6.50;99.90
4964;DHT22;2497;47.410;9.740;2023-02-22T08:37:41;6.60;99.90
4964;DHT22;2497;47.410;9.740;2023-02-22T08:40:15;6.50;99.90
4964;DHT22;2497;47.410;9.740;2023-02-22T08:42:42;6.40;99.90
4964;DHT22;2497;47.410;9.740;2023-02-22T08:45:10;6.20;99.90
4964;DHT22;2497;47.410;9.740;2023-02-22T08:47:38;6.10;99.90
4964;DHT22;2497;47.410;9.740;2023-02-22T08:50:06;6.00;99.90
4964;DHT22;2497;47.410;9.740;2023-02-22T08:52:33;5.80;99.90
4964;DHT22;2497;47.410;9.740;2023-02-22T08:55:01;5.90;99.90
4964;DHT22;2497;47.410;9.740;2023-02-22T08:57:32;6.10;99.90
4964;DHT22;2497;47.410;9.740;2023-02-22T08:59:59;6.20;99.90
4964;DHT22;2497;47.410;9.740;2023-02-22T09:02:26;6.30;99.90
4964;DHT22;2497;47.410;9.740;2023-02-22T09:04:54;6.60;99.90
4964;DHT22;2497;47.410;9.740;2023-02-22T09:07:21;6.90;99.90
4964;DHT22;2497;47.410;9.740;2023-02-22T09:09:50;7.00;99.90
4964;DHT22;2497;47.410;9.740;2023-02-22T09:12:18;6.90;99.90
4964;DHT22;2497;47.410;9.740;2023-02-22T09:14:46;6.80;99.90
4964;DHT22;2497;47.410;9.740;2023-02-22T09:17:13;6.80;99.90
4964;DHT22;2497;47.410;9.740;2023-02-22T09:19:40;6.80;99.90
4964;DHT22;2497;47.410;9.740;2023-02-22T09:22:08;6.70;99.90
4964;DHT22;2497;47.410;9.740;2023-02-22T09:24:35;6.90;99.90
4964;DHT22;2497;47.410;9.740;2023-02-22T09:27:02;7.00;99.90
4964;DHT22;2497;47.410;9.740;2023-02-22T09:29:33;7.50;99.90
4964;DHT22;2497;47.410;9.740;2023-02-22T09:32:02;7.70;99.90
4964;DHT22;2497;47.410;9.740;2023-02-22T09:34:29;7.70;99.90
4964;DHT22;2497;47.410;9.740;2023-02-22T09:37:00;7.80;99.90
4964;DHT22;2497;47.410;9.740;2023-02-22T09:39:27;7.70;99.90
4964;DHT22;2497;47.410;9.740;2023-02-22T09:42:02;7.90;99.90
4964;DHT22;2497;47.410;9.740;2023-02-22T09:44:36;8.00;99.90
4964;DHT22;2497;47.410;9.740;2023-02-22T09:47:13;8.00;99.90
4964;DHT22;2497;47.410;9.740;2023-02-22T09:49:51;7.80;99.90
4964;DHT22;2497;47.410;9.740;2023-02-22T09:52:24;7.90;99.90
4964;DHT22;2497;47.410;9.740;2023-02-22T09:54:58;7.80;99.90
4964;DHT22;2497;47.410;9.740;2023-02-22T09:57:32;8.00;99.90
4964;DHT22;2497;47.410;9.740;2023-02-22T10:00:05;8.10;99.90
4964;DHT22;2497;47.410;9.740;2023-02-22T10:02:45;8.30;99.90
4964;DHT22;2497;47.410;9.740;2023-02-22T10:05:18;8.50;99.90
4964;DHT22;2497;47.410;9.740;2023-02-22T10:07:51;8.70;99.90
4964;DHT22;2497;47.410;9.740;2023-02-22T10:10:21;8.90;99.90
4964;DHT22;2497;47.410;9.740;2023-02-22T10:12:55;9.10;99.90
4964;DHT22;2497;47.410;9.740;2023-02-22T10:15:41;9.50;99.90
4964;DHT22;2497;47.410;9.740;2023-02-22T10:21:27;10.20;99.90
4964;DHT22;2497;47.410;9.740;2023-02-22T10:24:04;10.40;99.90
4964;DHT22;2497;47.410;9.740;2023-02-22T10:26:39;10.60;99.90
4964;DHT22;2497;47.410;9.740;2023-02-22T10:29:15;10.80;99.90
4964;DHT22;2497;47.410;9.740;2023-02-22T10:31:46;10.80;99.90
4964;DHT22;2497;47.410;9.740;2023-02-22T10:34:21;10.90;99.90
4964;DHT22;2497;47.410;9.740;2023-02-22T10:36:53;11.00;99.90
4964;DHT22;2497;47.410;9.740;2023-02-22T10:39:27;11.00;99.90
4964;DHT22;2497;47.410;9.740;2023-02-22T10:41:56;11.40;99.90
4964;DHT22;2497;47.410;9.740;2023-02-22T10:44:23;11.60;99.90
4964;DHT22;2497;47.410;9.740;2023-02-22T10:46:51;11.70;99.90
4964;DHT22;2497;47.410;9.740;2023-02-22T10:49:22;11.90;99.90
4964;DHT22;2497;47.410;9.740;2023-02-22T10:51:58;12.20;99.90
4964;DHT22;2497;47.410;9.740;2023-02-22T10:54:31;12.30;99.90
4964;DHT22;2497;47.410;9.740;2023-02-22T10:56:59;12.30;99.90
4964;DHT22;2497;47.410;9.740;2023-02-22T10:59:31;12.60;99.90
4964;DHT22;2497;47.410;9.740;2023-02-22T11:01:59;12.60;99.90
4964;DHT22;2497;47.410;9.740;2023-02-22T11:04:44;12.70;99.90
4964;DHT22;2497;47.410;9.740;2023-02-22T11:07:20;12.80;99.90
4964;DHT22;2497;47.410;9.740;2023-02-22T11:09:51;12.90;99.90
4964;DHT22;2497;47.410;9.740;2023-02-22T11:12:20;13.00;99.90
4964;DHT22;2497;47.410;9.740;2023-02-22T11:14:52;12.80;99.90
4964;DHT22;2497;47.410;9.740;2023-02-22T11:17:28;12.40;99.90
4964;DHT22;2497;47.410;9.740;2023-02-22T11:19:58;12.30;99.90
4964;DHT22;2497;47.410;9.740;2023-02-22T11:22:38;12.40;99.90
4964;DHT22;2497;47.410;9.740;2023-02-22T11:25:07;12.50;99.90
4964;DHT22;2497;47.410;9.740;2023-02-22T11:27:37;12.90;99.90
4964;DHT22;2497;47.410;9.740;2023-02-22T11:30:17;13.50;99.90
4964;DHT22;2497;47.410;9.740;2023-02-22T11:32:48;14.40;99.90
4964;DHT22;2497;47.410;9.740;2023-02-22T11:35:29;15.30;99.90
4964;DHT22;2497;47.410;9.740;2023-02-22T11:38:09;15.80;99.90
4964;DHT22;2497;47.410;9.740;2023-02-22T11:40:36;15.80;99.90
4964;DHT22;2497;47.410;9.740;2023-02-22T11:43:08;15.60;99.90
4964;DHT22;2497;47.410;9.740;2023-02-22T11:45:38;15.60;99.90
4964;DHT22;2497;47.410;9.740;2023-02-22T11:48:06;15.70;99.90
4964;DHT22;2497;47.410;9.740;2023-02-22T11:50:41;16.10;99.90
4964;DHT22;2497;47.410;9.740;2023-02-22T11:53:26;16.70;99.90
4964;DHT22;2497;47.410;9.740;2023-02-22T11:56:17;17.70;99.90
4964;DHT22;2497;47.410;9.740;2023-02-22T11:58:51;19.10;99.90
4964;DHT22;2497;47.410;9.740;2023-02-22T12:01:25;19.60;99.90
4964;DHT22;2497;47.410;9.740;2023-02-22T12:07:19;20.50;99.90
4964;DHT22;2497;47.410;9.740;2023-02-22T12:09:53;21.20;99.90
4964;DHT22;2497;47.410;9.740;2023-02-22T12:12:30;21.80;99.90
4964;DHT22;2497;47.410;9.740;2023-02-22T12:15:03;22.80;99.90
4964;DHT22;2497;47.410;9.740;2023-02-22T12:17:42;23.20;99.90
4964;DHT22;2497;47.410;9.740;2023-02-22T12:20:16;23.40;99.90
4964;DHT22;2497;47.410;9.740;2023-02-22T12:22:55;23.90;99.90
4964;DHT22;2497;47.410;9.740;2023-02-22T12:25:28;23.60;99.90
4964;DHT22;2497;47.410;9.740;2023-02-22T12:28:01;23.00;99.90
4964;DHT22;2497;47.410;9.740;2023-02-22T12:30:33;22.20;99.90
4964;DHT22;2497;47.410;9.740;2023-02-22T12:33:05;22.40;99.90
4964;DHT22;2497;47.410;9.740;2023-02-22T12:35:38;22.60;99.90
4964;DHT22;2497;47.410;9.740;2023-02-22T12:38:12;23.50;99.90
4964;DHT22;2497;47.410;9.740;2023-02-22T12:40:46;23.90;99.90
4964;DHT22;2497;47.410;9.740;2023-02-22T12:43:22;24.30;99.90
4964;DHT22;2497;47.410;9.740;2023-02-22T12:45:53;25.20;99.90
4964;DHT22;2497;47.410;9.740;2023-02-22T12:48:34;24.60;99.90
4964;DHT22;2497;47.410;9.740;2023-02-22T12:51:11;25.20;99.90
4964;DHT22;2497;47.410;9.740;2023-02-22T12:53:48;25.30;99.90
4964;DHT22;2497;47.410;9.740;2023-02-22T12:56:20;24.60;99.90
4964;DHT22;2497;47.410;9.740;2023-02-22T12:58:52;24.10;99.90
4964;DHT22;2497;47.410;9.740;2023-02-22T13:01:23;24.40;99.90
4964;DHT22;2497;47.410;9.740;2023-02-22T13:03:53;23.90;99.90
4964;DHT22;2497;47.410;9.740;2023-02-22T13:06:33;23.50;99.90
4964;DHT22;2497;47.410;9.740;2023-02-22T13:12:02;22.10;99.90
4964;DHT22;2497;47.410;9.740;2023-02-22T13:14:47;22.20;99.90
4964;DHT22;2497;47.410;9.740;2023-02-22T13:17:21;22.60;99.90
4964;DHT22;2497;47.410;9.740;2023-02-22T13:19:56;22.10;99.90
4964;DHT22;2497;47.410;9.740;2023-02-22T13:22:31;21.00;99.90
4964;DHT22;2497;47.410;9.740;2023-02-22T13:25:05;20.40;99.90
4964;DHT22;2497;47.410;9.740;2023-02-22T13:27:39;19.50;99.90
4964;DHT22;2497;47.410;9.740;2023-02-22T13:30:18;18.40;99.90
4964;DHT22;2497;47.410;9.740;2023-02-22T13:33:03;17.50;99.90
4964;DHT22;2497;47.410;9.740;2023-02-22T13:35:51;17.30;99.90
4964;DHT22;2497;47.410;9.740;2023-02-22T13:38:38;17.30;99.90
4964;DHT22;2497;47.410;9.740;2023-02-22T13:41:32;16.90;99.90
4964;DHT22;2497;47.410;9.740;2023-02-22T13:44:17;17.10;99.90
4964;DHT22;2497;47.410;9.740;2023-02-22T13:47:20;17.20;99.90
4964;DHT22;2497;47.410;9.740;2023-02-22T13:50:01;16.60;99.90
4964;DHT22;2497;47.410;9.740;2023-02-22T13:52:33;16.70;99.90
4964;DHT22;2497;47.410;9.740;2023-02-22T13:55:05;17.10;99.90
4964;DHT22;2497;47.410;9.740;2023-02-22T13:57:39;17.90;99.90
4964;DHT22;2497;47.410;9.740;2023-02-22T14:00:40;18.60;99.90
4964;DHT22;2497;47.410;9.740;2023-02-22T14:03:28;19.40;99.90
4964;DHT22;2497;47.410;9.740;2023-02-22T14:06:01;19.10;99.90
4964;DHT22;2497;47.410;9.740;2023-02-22T14:08:42;18.70;99.90
4964;DHT22;2497;47.410;9.740;2023-02-22T14:14:18;18.50;99.90
4964;DHT22;2497;47.410;9.740;2023-02-22T14:17:20;18.60;99.90
4964;DHT22;2497;47.410;9.740;2023-02-22T14:20:18;18.40;99.90
4964;DHT22;2497;47.410;9.740;2023-02-22T14:22:47;18.30;99.90
4964;DHT22;2497;47.410;9.740;2023-02-22T14:25:36;18.10;99.90
4964;DHT22;2497;47.410;9.740;2023-02-22T14:28:05;17.90;99.90
4964;DHT22;2497;47.410;9.740;2023-02-22T14:30:36;18.00;99.90
4964;DHT22;2497;47.410;9.740;2023-02-22T14:36:21;18.30;99.90
4964;DHT22;2497;47.410;9.740;2023-02-22T14:38:50;18.00;99.90
4964;DHT22;2497;47.410;9.740;2023-02-22T14:41:20;17.60;99.90
4964;DHT22;2497;47.410;9.740;2023-02-22T14:43:50;17.30;99.90
4964;DHT22;2497;47.410;9.740;2023-02-22T14:46:22;17.10;99.90
4964;DHT22;2497;47.410;9.740;2023-02-22T14:48:51;17.00;99.90
4964;DHT22;2497;47.410;9.740;2023-02-22T14:51:22;16.90;99.90
4964;DHT22;2497;47.410;9.740;2023-02-22T14:53:51;16.60;99.90
4964;DHT22;2497;47.410;9.740;2023-02-22T14:56:21;16.10;99.90
4964;DHT22;2497;47.410;9.740;2023-02-22T14:58:54;16.00;99.90
4964;DHT22;2497;47.410;9.740;2023-02-22T15:01:28;15.90;99.90
4964;DHT22;2497;47.410;9.740;2023-02-22T15:04:03;15.60;99.90
4964;DHT22;2497;47.410;9.740;2023-02-22T15:06:42;15.70;99.90
4964;DHT22;2497;47.410;9.740;2023-02-22T15:09:12;16.00;99.90
4964;DHT22;2497;47.410;9.740;2023-02-22T15:11:48;16.00;99.90
4964;DHT22;2497;47.410;9.740;2023-02-22T15:14:17;16.00;99.90
4964;DHT22;2497;47.410;9.740;2023-02-22T15:16:48;16.30;99.90
4964;DHT22;2497;47.410;9.740;2023-02-22T15:19:21;16.40;99.90
4964;DHT22;2497;47.410;9.740;2023-02-22T15:21:52;16.30;99.90
4964;DHT22;2497;47.410;9.740;2023-02-22T15:24:23;16.00;99.90
4964;DHT22;2497;47.410;9.740;2023-02-22T15:26:50;15.80;99.90
4964;DHT22;2497;47.410;9.740;2023-02-22T15:29:20;15.60;99.90
4964;DHT22;2497;47.410;9.740;2023-02-22T15:31:51;15.60;99.90
4964;DHT22;2497;47.410;9.740;2023-02-22T15:34:26;15.40;99.90
4964;DHT22;2497;47.410;9.740;2023-02-22T15:36:56;15.20;99.90
4964;DHT22;2497;47.410;9.740;2023-02-22T15:39:25;15.10;99.90
4964;DHT22;2497;47.410;9.740;2023-02-22T15:42:02;15.00;99.90
4964;DHT22;2497;47.410;9.740;2023-02-22T15:44:34;15.00;99.90
4964;DHT22;2497;47.410;9.740;2023-02-22T15:47:04;15.00;99.90
4964;DHT22;2497;47.410;9.740;2023-02-22T15:49:31;15.20;99.90
4964;DHT22;2497;47.410;9.740;2023-02-22T15:52:08;15.70;99.90
4964;DHT22;2497;47.410;9.740;2023-02-22T15:54:43;16.00;99.90
4964;DHT22;2497;47.410;9.740;2023-02-22T15:57:16;16.00;99.90
4964;DHT22;2497;47.410;9.740;2023-02-22T15:59:48;16.20;99.90
4964;DHT22;2497;47.410;9.740;2023-02-22T16:02:35;15.80;99.90
4964;DHT22;2497;47.410;9.740;2023-02-22T16:05:07;15.40;99.90
4964;DHT22;2497;47.410;9.740;2023-02-22T16:07:38;15.00;99.90
4964;DHT22;2497;47.410;9.740;2023-02-22T16:10:20;14.60;99.90
4964;DHT22;2497;47.410;9.740;2023-02-22T16:12:48;14.40;99.90
4964;DHT22;2497;47.410;9.740;2023-02-22T16:15:18;14.20;99.90
4964;DHT22;2497;47.410;9.740;2023-02-22T16:17:46;14.10;99.90
4964;DHT22;2497;47.410;9.740;2023-02-22T16:20:31;13.80;99.90
4964;DHT22;2497;47.410;9.740;2023-02-22T16:22:58;13.50;99.90
4964;DHT22;2497;47.410;9.740;2023-02-22T16:25:30;13.40;99.90
4964;DHT22;2497;47.410;9.740;2023-02-22T16:28:02;13.30;99.90
4964;DHT22;2497;47.410;9.740;2023-02-22T16:30:33;13.00;99.90
4964;DHT22;2497;47.410;9.740;2023-02-22T16:33:06;12.70;99.90
4964;DHT22;2497;47.410;9.740;2023-02-22T16:35:39;12.60;99.90
4964;DHT22;2497;47.410;9.740;2023-02-22T16:38:16;12.50;99.90
4964;DHT22;2497;47.410;9.740;2023-02-22T16:40:46;12.40;99.90
4964;DHT22;2497;47.410;9.740;2023-02-22T16:43:18;12.20;99.90
4964;DHT22;2497;47.410;9.740;2023-02-22T16:45:46;12.10;99.90
4964;DHT22;2497;47.410;9.740;2023-02-22T16:48:18;12.00;99.90
4964;DHT22;2497;47.410;9.740;2023-02-22T16:50:47;11.70;99.90
4964;DHT22;2497;47.410;9.740;2023-02-22T16:53:14;11.60;99.90
4964;DHT22;2497;47.410;9.740;2023-02-22T16:55:45;11.60;99.90
4964;DHT22;2497;47.410;9.740;2023-02-22T16:58:14;11.50;99.90
4964;DHT22;2497;47.410;9.740;2023-02-22T17:00:43;11.30;99.90
4964;DHT22;2497;47.410;9.740;2023-02-22T17:03:16;11.20;99.90
4964;DHT22;2497;47.410;9.740;2023-02-22T17:05:44;11.10;99.90